Time,TemperatureF,DewpointF,PressureIn,WindDirection,WindDirectionDegrees,WindSpeedMPH,WindSpeedGustMPH,Humidity,HourlyPrecipIn,Conditions,Clouds,dailyrainin,SoftwareType,DateUTC
2013-06-13 00:01:00,69.8,69.8,29.71,East,90,0.0,0.0,100,0.00,,,0.00,VWS V14.01,2013-06-13 04:01:00,
2013-06-13 00:06:00,69.8,69.8,29.71,NE,45,2.8,2.9,100,0.04,,,0.04,VWS V14.01,2013-06-13 04:06:00,
2013-06-13 00:11:00,69.8,69.8,29.71,NE,45,0.0,2.9,100,0.04,,-RA,0.04,VWS V14.01,2013-06-13 04:11:00,
2013-06-13 00:16:00,69.8,69.8,29.71,ENE,68,0.0,0.0,100,0.04,,-RA,0.04,VWS V14.01,2013-06-13 04:16:00,
2013-06-13 00:21:00,69.8,69.8,29.71,ESE,112,0.0,1.9,100,0.04,,-RA,0.04,VWS V14.01,2013-06-13 04:21:00,
2013-06-13 00:26:00,69.8,69.8,29.71,ESE,112,0.0,0.0,100,0.04,,-RA,0.04,VWS V14.01,2013-06-13 04:26:00,
2013-06-13 00:31:00,69.8,69.8,29.71,NE,45,2.8,2.8,100,0.04,,-RA,0.04,VWS V14.01,2013-06-13 04:31:00,
2013-06-13 00:36:00,69.8,69.8,29.68,East,90,0.0,0.0,100,0.08,,-RA,0.08,VWS V14.01,2013-06-13 04:36:00,
2013-06-13 00:41:00,69.8,69.8,29.68,ESE,112,0.0,0.0,100,0.08,,-RA,0.08,VWS V14.01,2013-06-13 04:41:00,
2013-06-13 00:46:00,69.8,69.8,29.68,ESE,112,0.0,0.0,100,0.12,,-RA,0.12,VWS V14.01,2013-06-13 04:46:00,
2013-06-13 00:51:00,69.8,69.8,29.71,ESE,112,3.4,3.4,100,0.12,,-RA,0.12,VWS V14.01,2013-06-13 04:51:00,
2013-06-13 00:56:00,69.8,69.8,29.71,SSE,158,0.0,0.0,100,0.12,,-RA,0.12,VWS V14.01,2013-06-13 04:56:00,
2013-06-13 01:01:00,69.8,69.8,29.71,SSE,158,2.8,2.8,100,0.08,, +RA,0.12,VWS V14.01,2013-06-13 05:01:00,
2013-06-13 01:06:00,69.8,69.8,29.71,SSE,158,0.0,0.0,100,0.08,, +RA,0.12,VWS V14.01,2013-06-13 05:06:00,
2013-06-13 01:11:00,69.8,69.8,29.71,SSE,158,0.0,0.0,100,0.08,, +RA,0.12,VWS V14.01,2013-06-13 05:11:00,
2013-06-13 01:16:00,69.8,69.8,29.71,SSE,158,3.9,3.9,100,0.13,,-RA,0.17,VWS V14.01,2013-06-13 05:16:00,
2013-06-13 01:21:00,69.8,69.8,29.68,SSE,158,0.0,0.0,100,0.13,,-RA,0.17,VWS V14.01,2013-06-13 05:21:00,
2013-06-13 01:26:00,69.8,69.8,29.68,East,90,2.2,2.2,100,0.16,,-RA,0.20,VWS V14.01,2013-06-13 05:26:00,
2013-06-13 01:31:00,69.8,69.8,29.68,East,90,0.0,0.0,100,0.16,, +RA,0.20,VWS V14.01,2013-06-13 05:31:00,
2013-06-13 01:36:00,69.8,69.8,29.68,East,90,0.0,0.0,100,0.17,, +RA,0.25,VWS V14.01,2013-06-13 05:36:00,
2013-06-13 01:41:00,69.8,69.8,29.68,East,90,0.0,0.0,100,0.17,, +RA,0.25,VWS V14.01,2013-06-13 05:41:00,
2013-06-13 01:46:00,69.8,69.8,29.68,East,90,0.0,0.0,100,0.13,, +RA,0.25,VWS V14.01,2013-06-13 05:46:00,
2013-06-13 01:51:00,69.8,69.8,29.68,East,90,0.0,0.0,100,0.17,,RA,0.29,VWS V14.01,2013-06-13 05:51:00,
2013-06-13 01:56:00,69.8,69.8,29.68,East,90,0.0,0.0,100,0.17,,RA,0.29,VWS V14.01,2013-06-13 05:56:00,
2013-06-13 02:01:00,69.8,69.8,29.68,East,90,0.0,0.0,100,0.17,,RA,0.29,VWS V14.01,2013-06-13 06:01:00,
2013-06-13 02:06:00,69.8,69.8,29.65,NE,45,0.0,0.0,100,0.21,,RA,0.33,VWS V14.01,2013-06-13 06:06:00,
2013-06-13 02:11:00,69.8,69.8,29.65,NE,45,0.0,0.0,100,0.25,,RA,0.37,VWS V14.01,2013-06-13 06:11:00,
2013-06-13 02:16:00,69.8,69.8,29.65,NE,45,0.0,0.0,100,0.20,,RA,0.37,VWS V14.01,2013-06-13 06:16:00,
2013-06-13 02:21:00,69.8,69.8,29.65,ENE,68,0.0,0.0,100,0.24,,RA,0.41,VWS V14.01,2013-06-13 06:21:00,
2013-06-13 02:26:00,69.8,69.8,29.65,NE,45,2.8,4.8,100,0.21,,RA,0.41,VWS V14.01,2013-06-13 06:26:00,
2013-06-13 02:31:00,69.8,69.8,29.65,East,90,2.2,2.9,100,0.25,,RA,0.45,VWS V14.01,2013-06-13 06:31:00,
2013-06-13 02:36:00,69.8,69.8,29.62,NE,45,0.0,0.0,100,0.20,,RA,0.45,VWS V14.01,2013-06-13 06:36:00,
2013-06-13 02:42:00,69.8,69.8,29.62,ENE,68,0.0,0.0,100,0.25,,RA,0.50,VWS V14.01,2013-06-13 06:42:00,
2013-06-13 02:47:00,69.8,69.8,29.62,NE,45,0.0,0.0,100,0.25,,RA,0.50,VWS V14.01,2013-06-13 06:47:00,
2013-06-13 02:52:00,69.8,69.8,29.62,East,90,2.2,2.4,100,0.29,,RA,0.54,VWS V14.01,2013-06-13 06:52:00,
2013-06-13 02:57:00,69.8,69.8,29.62,East,90,3.9,3.9,100,0.25,,RA,0.54,VWS V14.01,2013-06-13 06:57:00,
2013-06-13 03:02:00,69.8,69.8,29.62,ENE,68,0.0,0.0,100,0.29,,RA,0.58,VWS V14.01,2013-06-13 07:02:00,
2013-06-13 03:07:00,69.8,69.8,29.62,ENE,68,0.0,2.9,100,0.25,,RA,0.58,VWS V14.01,2013-06-13 07:07:00,
2013-06-13 03:12:00,69.8,69.8,29.62,NE,45,0.0,0.0,100,0.25,,RA,0.62,VWS V14.01,2013-06-13 07:12:00,
2013-06-13 03:17:00,69.8,69.8,29.62,NW,315,0.0,0.0,100,0.25,,RA,0.62,VWS V14.01,2013-06-13 07:17:00,
2013-06-13 03:22:00,69.8,69.8,29.59,ENE,68,0.0,0.0,100,0.21,, +RA,0.62,VWS V14.01,2013-06-13 07:22:00,
2013-06-13 03:35:00,0.0,-24.1,29.59,NE,45,2.2,2.2,30,0.21,, +RA,1.78,VWS V14.01,2013-06-13 07:35:00,
2013-06-13 03:40:00,0.0,-24.1,29.62,ESE,112,0.0,0.0,30,0.21,, +RA,1.78,VWS V14.01,2013-06-13 07:40:00,
2013-06-13 03:45:00,0.0,-24.1,29.62,NE,45,0.0,0.0,30,0.16,, +RA,1.78,VWS V14.01,2013-06-13 07:45:00,
2013-06-13 03:50:00,0.0,-24.1,29.62,NE,45,0.0,0.0,30,0.12,, +RA,1.78,VWS V14.01,2013-06-13 07:50:00,
2013-06-13 03:55:00,0.0,-24.1,29.62,NE,45,0.0,0.0,30,0.12,, +RA,1.78,VWS V14.01,2013-06-13 07:55:00,
2013-06-13 04:00:00,0.0,-24.1,29.62,NE,45,0.0,0.0,30,0.12,, +RA,1.82,VWS V14.01,2013-06-13 08:00:00,
2013-06-13 04:05:00,0.0,-24.1,29.62,NE,45,0.0,0.0,30,0.12,, +RA,1.82,VWS V14.01,2013-06-13 08:05:00,
2013-06-13 04:10:00,0.0,-24.1,29.62,East,90,3.4,3.4,30,0.08,, +RA,1.82,VWS V14.01,2013-06-13 08:10:00,
2013-06-13 04:15:00,0.0,-24.1,29.62,NE,45,6.2,6.2,30,0.08,, +RA,1.82,VWS V14.01,2013-06-13 08:15:00,
2013-06-13 04:20:00,0.0,-24.1,29.62,NE,45,9.5,9.5,30,0.08,, +RA,1.82,VWS V14.01,2013-06-13 08:20:00,
2013-06-13 04:25:00,0.0,-24.1,29.62,NE,45,3.9,5.3,30,1.86,, +RA,1.86,VWS V14.01,2013-06-13 08:25:00,
2013-06-13 04:30:00,0.0,-24.1,29.62,NE,45,3.9,5.8,30,0.12,,-RA,1.86,VWS V14.01,2013-06-13 08:30:00,
2013-06-13 04:35:00,0.0,-24.1,29.62,NE,45,0.0,0.0,30,0.12,,-RA,1.90,VWS V14.01,2013-06-13 08:35:00,
2013-06-13 04:40:00,0.0,-24.1,29.62,NE,45,2.8,2.8,30,0.12,,-RA,1.90,VWS V14.01,2013-06-13 08:40:00,
2013-06-13 04:45:00,0.0,-24.1,29.62,NW,315,0.0,2.9,30,0.12,,-RA,1.90,VWS V14.01,2013-06-13 08:45:00,
2013-06-13 04:50:00,0.0,-24.1,29.62,NW,315,5.0,6.7,30,0.12,,-RA,1.90,VWS V14.01,2013-06-13 08:50:00,
2013-06-13 04:55:00,0.0,-24.1,29.62,ENE,68,5.0,5.0,30,0.12,,-RA,1.90,VWS V14.01,2013-06-13 08:55:00,
2013-06-13 05:00:00,0.0,-24.1,29.62,NW,315,13.4,13.4,30,0.13,,RA,1.95,VWS V14.01,2013-06-13 09:00:00,
2013-06-13 05:05:00,0.0,-24.1,29.62,NW,315,8.4,8.4,30,0.13,,RA,1.95,VWS V14.01,2013-06-13 09:05:00,
2013-06-13 05:10:00,0.0,-24.1,29.65,NE,45,8.4,8.4,30,0.13,,RA,1.95,VWS V14.01,2013-06-13 09:10:00,
2013-06-13 05:15:00,0.0,-24.1,29.65,NW,315,5.0,5.0,30,0.13,,RA,1.95,VWS V14.01,2013-06-13 09:15:00,
2013-06-13 05:21:00,0.0,-24.1,29.65,NE,45,12.3,12.3,30,0.13,,RA,1.95,VWS V14.01,2013-06-13 09:21:00,
2013-06-13 05:26:00,0.0,-24.1,29.65,NE,45,10.6,10.6,30,0.09,,RA,1.95,VWS V14.01,2013-06-13 09:26:00,
2013-06-13 05:31:00,0.0,-24.1,29.65,NE,45,5.0,5.0,30,0.09,,RA,1.95,VWS V14.01,2013-06-13 09:31:00,
2013-06-13 05:36:00,0.0,-24.1,29.68,NE,45,5.6,8.2,30,0.05,,RA,1.95,VWS V14.01,2013-06-13 09:36:00,
2013-06-13 05:41:00,0.0,-24.1,29.68,NE,45,8.4,8.4,30,0.05,,-RA,1.95,VWS V14.01,2013-06-13 09:41:00,
2013-06-13 05:46:00,0.0,-24.1,29.68,NE,45,2.2,2.2,30,0.05,,-RA,1.95,VWS V14.01,2013-06-13 09:46:00,
2013-06-13 05:51:00,0.0,-24.1,29.68,NW,315,11.7,11.7,30,0.05,,-RA,1.95,VWS V14.01,2013-06-13 09:51:00,
2013-06-13 05:56:00,0.0,-24.1,29.68,NE,45,5.0,6.7,30,0.05,,-RA,1.95,VWS V14.01,2013-06-13 09:56:00,
2013-06-13 06:01:00,0.0,-24.1,29.68,NW,315,9.5,9.5,30,0.00,,OVC033,1.95,VWS V14.01,2013-06-13 10:01:00,
2013-06-13 06:06:00,0.0,-24.1,29.68,NW,315,5.0,5.0,30,0.00,,OVC033,1.95,VWS V14.01,2013-06-13 10:06:00,
2013-06-13 06:11:00,0.0,-24.1,29.68,NW,315,5.6,5.6,30,0.00,,OVC033,1.95,VWS V14.01,2013-06-13 10:11:00,
2013-06-13 06:16:00,0.0,-24.1,29.68,NW,315,2.8,4.3,30,0.00,,OVC033,1.95,VWS V14.01,2013-06-13 10:16:00,
2013-06-13 06:21:00,0.0,-24.1,29.65,NE,45,3.9,3.9,30,0.00,,OVC033,1.95,VWS V14.01,2013-06-13 10:21:00,
2013-06-13 06:26:00,0.0,-24.1,29.65,NE,45,0.0,2.9,30,0.00,,OVC033,1.95,VWS V14.01,2013-06-13 10:26:00,
2013-06-13 06:31:00,0.0,-24.1,29.65,NW,315,5.6,7.7,30,0.00,,OVC033,1.95,VWS V14.01,2013-06-13 10:31:00,
2013-06-13 06:36:00,0.0,-24.1,29.68,NW,315,8.4,8.4,30,0.00,,OVC033,1.95,VWS V14.01,2013-06-13 10:36:00,
2013-06-13 06:41:00,0.0,-24.1,29.68,NE,45,8.4,8.4,30,0.00,,OVC033,1.95,VWS V14.01,2013-06-13 10:41:00,
2013-06-13 06:46:00,63.9,63.9,29.68,NW,315,0.0,5.8,100,0.00,,OVC033,1.95,VWS V14.01,2013-06-13 10:46:00,
2013-06-13 06:51:00,63.9,63.9,29.68,NW,315,5.0,5.0,100,0.00,,OVC033,1.95,VWS V14.01,2013-06-13 10:51:00,
2013-06-13 06:56:00,63.5,63.5,29.68,NW,315,5.6,7.7,100,0.00,,OVC033,1.95,VWS V14.01,2013-06-13 10:56:00,
2013-06-13 07:01:00,63.5,63.5,29.68,NW,315,5.0,5.0,100,0.00,,-RA,1.95,VWS V14.01,2013-06-13 11:01:00,
2013-06-13 07:06:00,63.5,63.5,29.71,NW,315,3.9,3.9,100,0.00,,-RA,1.95,VWS V14.01,2013-06-13 11:06:00,
2013-06-13 07:11:00,63.5,63.5,29.71,NE,45,8.4,8.4,100,0.00,,-RA,1.95,VWS V14.01,2013-06-13 11:11:00,
2013-06-13 07:16:00,63.1,63.1,29.71,NW,315,5.6,7.7,100,0.00,,-RA,1.95,VWS V14.01,2013-06-13 11:16:00,
2013-06-13 07:21:00,63.1,63.1,29.71,NW,315,0.0,5.8,100,0.00,,-RA,1.95,VWS V14.01,2013-06-13 11:21:00,
2013-06-13 07:26:00,63.1,63.1,29.71,NE,45,0.0,0.0,100,0.00,,-RA,1.95,VWS V14.01,2013-06-13 11:26:00,
2013-06-13 07:31:00,63.1,63.1,29.71,NW,315,6.2,6.2,100,0.00,,-RA,1.95,VWS V14.01,2013-06-13 11:31:00,
2013-06-13 07:36:00,63.1,63.1,29.71,NW,315,6.2,6.2,100,0.04,,-RA,1.99,VWS V14.01,2013-06-13 11:36:00,
2013-06-13 07:41:00,63.1,63.1,29.71,NW,315,0.0,6.3,100,0.04,,-RA,1.99,VWS V14.01,2013-06-13 11:41:00,
2013-06-13 07:46:00,63.1,63.1,29.71,NW,315,0.0,3.4,100,0.04,,-RA,1.99,VWS V14.01,2013-06-13 11:46:00,
2013-06-13 07:51:00,63.0,63.0,29.71,NW,315,6.2,6.2,100,0.04,,-RA,1.99,VWS V14.01,2013-06-13 11:51:00,
2013-06-13 07:56:00,63.0,63.0,29.71,NW,315,6.2,6.2,100,0.04,,-RA,1.99,VWS V14.01,2013-06-13 11:56:00,
2013-06-13 08:01:00,63.0,63.0,29.71,NW,315,5.0,5.0,100,0.04,,-RA,1.99,VWS V14.01,2013-06-13 12:01:00,
2013-06-13 08:06:00,63.0,63.0,29.71,NW,315,7.8,7.8,100,0.04,,-RA,1.99,VWS V14.01,2013-06-13 12:06:00,
2013-06-13 08:11:00,63.0,63.0,29.71,NW,315,0.0,0.0,100,0.04,,-RA,1.99,VWS V14.01,2013-06-13 12:11:00,
2013-06-13 08:16:00,63.1,63.1,29.71,NW,315,0.0,0.0,100,0.04,,-RA,1.99,VWS V14.01,2013-06-13 12:16:00,
2013-06-13 08:21:00,63.1,63.1,29.74,WNW,292,3.4,3.4,100,0.04,,-RA,1.99,VWS V14.01,2013-06-13 12:21:00,
2013-06-13 08:26:00,63.1,63.1,29.74,NW,315,5.6,6.7,100,0.04,,-RA,1.99,VWS V14.01,2013-06-13 12:26:00,
2013-06-13 08:31:00,63.1,63.1,29.74,West,270,0.0,0.0,100,0.04,,-RA,1.99,VWS V14.01,2013-06-13 12:31:00,
2013-06-13 08:36:00,63.3,63.3,29.74,NE,45,7.3,7.3,100,0.00,,-RA,1.99,VWS V14.01,2013-06-13 12:36:00,
2013-06-13 08:41:00,63.3,63.3,29.74,NW,315,0.0,0.0,100,0.00,,-RA,1.99,VWS V14.01,2013-06-13 12:41:00,
2013-06-13 08:46:00,63.5,63.5,29.74,NW,315,2.2,2.2,100,0.00,,-RA,1.99,VWS V14.01,2013-06-13 12:46:00,
2013-06-13 08:51:00,63.7,63.7,29.74,NW,315,3.4,5.8,100,0.00,,-RA,1.99,VWS V14.01,2013-06-13 12:51:00,
2013-06-13 08:56:00,63.9,63.9,29.74,NW,315,10.1,10.1,100,0.00,,-RA,1.99,VWS V14.01,2013-06-13 12:56:00,
2013-06-13 09:01:00,64.0,64.0,29.74,NW,315,3.4,3.4,100,0.00,,BKN180,1.99,VWS V14.01,2013-06-13 13:01:00,
2013-06-13 09:06:00,64.2,64.2,29.71,NW,315,3.4,4.3,100,0.00,,BKN180,1.99,VWS V14.01,2013-06-13 13:06:00,
2013-06-13 09:11:00,64.6,64.6,29.71,NW,315,3.9,5.3,100,0.00,,BKN180,1.99,VWS V14.01,2013-06-13 13:11:00,
2013-06-13 09:16:00,64.8,64.8,29.71,West,270,2.8,2.8,100,0.00,,BKN180,1.99,VWS V14.01,2013-06-13 13:16:00,
2013-06-13 09:21:00,64.8,64.8,29.74,NW,315,9.5,9.5,100,0.00,,BKN180,1.99,VWS V14.01,2013-06-13 13:21:00,
2013-06-13 09:26:00,64.6,64.6,29.74,NE,45,5.0,6.7,100,0.00,,BKN180,1.99,VWS V14.01,2013-06-13 13:26:00,
2013-06-13 09:31:00,64.4,62.3,29.74,NW,315,6.2,6.3,93,0.00,,BKN180,1.99,VWS V14.01,2013-06-13 13:31:00,
2013-06-13 09:36:00,64.9,63.2,29.71,NW,315,5.6,5.6,94,0.00,,BKN180,1.99,VWS V14.01,2013-06-13 13:36:00,
2013-06-13 09:41:00,64.9,61.9,29.71,NW,315,0.0,2.9,90,0.00,,BKN180,1.99,VWS V14.01,2013-06-13 13:41:00,
2013-06-13 09:46:00,65.3,62.6,29.71,NW,315,5.6,5.6,91,0.00,,BKN180,1.99,VWS V14.01,2013-06-13 13:46:00,
2013-06-13 09:51:00,64.9,60.3,29.74,NE,45,2.2,3.4,85,0.00,,BKN180,1.99,VWS V14.01,2013-06-13 13:51:00,
2013-06-13 09:56:00,66.0,62.4,29.74,NW,315,2.8,2.8,88,0.00,,BKN180,1.99,VWS V14.01,2013-06-13 13:56:00,
2013-06-13 10:01:00,66.2,58.4,29.74,East,90,6.7,6.7,76,0.00,,BKN210,1.99,VWS V14.01,2013-06-13 14:01:00,
2013-06-13 10:06:00,66.6,57.3,29.74,NW,315,5.0,5.0,72,0.00,,BKN210,1.99,VWS V14.01,2013-06-13 14:06:00,
2013-06-13 10:11:00,66.9,57.2,29.74,NW,315,3.9,4.3,71,0.00,,BKN210,1.99,VWS V14.01,2013-06-13 14:11:00,
2013-06-13 10:16:00,67.1,54.1,29.74,NW,315,10.6,11.5,63,0.00,,BKN210,1.99,VWS V14.01,2013-06-13 14:16:00,
2013-06-13 10:21:00,67.3,54.7,29.74,NW,315,6.2,8.2,64,0.00,,BKN210,1.99,VWS V14.01,2013-06-13 14:21:00,
2013-06-13 10:26:00,67.5,54.9,29.74,NE,45,5.0,5.8,64,0.00,,BKN210,1.99,VWS V14.01,2013-06-13 14:26:00,
2013-06-13 10:32:00,67.5,54.4,29.74,NE,45,2.8,2.8,63,0.00,,BKN210,1.99,VWS V14.01,2013-06-13 14:32:00,
2013-06-13 10:37:00,67.3,54.3,29.74,NW,315,2.2,2.4,63,0.00,,BKN210,1.99,VWS V14.01,2013-06-13 14:37:00,
2013-06-13 10:42:00,67.5,54.4,29.74,NW,315,0.0,4.8,63,0.00,,BKN210,1.99,VWS V14.01,2013-06-13 14:42:00,
2013-06-13 10:47:00,67.6,54.2,29.74,NW,315,9.0,9.0,62,0.00,,BKN210,1.99,VWS V14.01,2013-06-13 14:47:00,
2013-06-13 10:52:00,67.6,52.3,29.74,NW,315,9.0,9.0,58,0.00,,BKN210,1.99,VWS V14.01,2013-06-13 14:52:00,
2013-06-13 10:57:00,67.8,52.5,29.74,NW,315,13.4,13.4,58,0.00,,BKN210,1.99,VWS V14.01,2013-06-13 14:57:00,
2013-06-13 11:02:00,67.8,53.0,29.74,NW,315,6.2,6.2,59,0.00,,BKN230,1.99,VWS V14.01,2013-06-13 15:02:00,
2013-06-13 11:07:00,67.8,51.6,29.74,NW,315,16.2,16.2,56,0.00,,BKN230,1.99,VWS V14.01,2013-06-13 15:07:00,
2013-06-13 11:12:00,68.0,51.7,29.74,NW,315,10.1,11.5,56,0.00,,BKN230,1.99,VWS V14.01,2013-06-13 15:12:00,
2013-06-13 11:17:00,67.8,51.1,29.74,NW,315,12.3,12.3,55,0.00,,BKN230,1.99,VWS V14.01,2013-06-13 15:17:00,
2013-06-13 11:22:00,68.2,52.9,29.76,NE,45,3.9,5.8,58,0.00,,BKN230,1.99,VWS V14.01,2013-06-13 15:22:00,
2013-06-13 11:27:00,68.4,53.0,29.76,NE,45,6.7,6.7,58,0.00,,BKN230,1.99,VWS V14.01,2013-06-13 15:27:00,
2013-06-13 11:32:00,68.7,53.4,29.76,East,90,5.6,5.6,58,0.00,,BKN230,1.99,VWS V14.01,2013-06-13 15:32:00,
2013-06-13 11:37:00,68.9,52.6,29.79,NW,315,6.2,6.2,56,0.00,,BKN230,1.99,VWS V14.01,2013-06-13 15:37:00,
2013-06-13 11:42:00,69.1,52.2,29.79,NW,315,12.3,12.3,55,0.00,,BKN230,1.99,VWS V14.01,2013-06-13 15:42:00,
2013-06-13 11:47:00,68.5,51.2,29.79,NE,45,9.0,9.0,54,0.00,,BKN230,1.99,VWS V14.01,2013-06-13 15:47:00,
2013-06-13 11:52:00,68.7,51.9,29.79,NW,315,6.2,7.2,55,0.00,,BKN230,1.99,VWS V14.01,2013-06-13 15:52:00,
2013-06-13 11:57:00,68.7,51.4,29.79,NW,315,6.7,6.7,54,0.00,,BKN230,1.99,VWS V14.01,2013-06-13 15:57:00,
2013-06-13 12:02:00,68.9,51.6,29.79,NW,315,8.4,8.4,54,0.00,,BKN240,1.99,VWS V14.01,2013-06-13 16:02:00,
2013-06-13 12:07:00,68.9,51.6,29.82,NW,315,3.9,7.2,54,0.00,,BKN240,1.99,VWS V14.01,2013-06-13 16:07:00,
2013-06-13 12:12:00,69.3,52.4,29.82,ESE,112,5.0,7.7,55,0.00,,BKN240,1.99,VWS V14.01,2013-06-13 16:12:00,
2013-06-13 12:17:00,69.4,52.6,29.82,WNW,292,7.3,7.3,55,0.00,,BKN240,1.99,VWS V14.01,2013-06-13 16:17:00,
2013-06-13 12:22:00,69.8,52.4,29.79,NE,45,3.9,6.3,54,0.00,,BKN240,1.99,VWS V14.01,2013-06-13 16:22:00,
2013-06-13 12:27:00,69.8,52.4,29.79,WNW,292,2.8,5.3,54,0.00,,BKN240,1.99,VWS V14.01,2013-06-13 16:27:00,
2013-06-13 12:32:00,70.2,51.7,29.79,NW,315,10.1,13.0,52,0.00,,BKN240,1.99,VWS V14.01,2013-06-13 16:32:00,
2013-06-13 12:37:00,70.3,51.9,29.79,NE,45,7.8,10.6,52,0.00,,BKN240,1.99,VWS V14.01,2013-06-13 16:37:00,
2013-06-13 12:42:00,70.2,51.7,29.79,NW,315,12.3,12.3,52,0.00,,BKN240,1.99,VWS V14.01,2013-06-13 16:42:00,
2013-06-13 12:47:00,70.5,52.6,29.79,West,270,2.8,8.7,53,0.00,,BKN240,1.99,VWS V14.01,2013-06-13 16:47:00,
2013-06-13 12:52:00,70.5,52.1,29.79,NW,315,3.9,7.2,52,0.00,,BKN240,1.99,VWS V14.01,2013-06-13 16:52:00,
2013-06-13 12:57:00,70.7,52.2,29.79,NE,45,6.2,6.2,52,0.00,,BKN240,1.99,VWS V14.01,2013-06-13 16:57:00,
2013-06-13 13:02:00,70.9,52.4,29.79,NW,315,6.2,6.2,52,0.00,,SCT240,1.99,VWS V14.01,2013-06-13 17:02:00,
2013-06-13 13:07:00,71.1,52.6,29.76,WNW,292,5.0,7.7,52,0.00,,SCT240,1.99,VWS V14.01,2013-06-13 17:07:00,
2013-06-13 13:12:00,71.1,52.6,29.76,NW,315,3.9,5.3,52,0.00,,SCT240,1.99,VWS V14.01,2013-06-13 17:12:00,
2013-06-13 13:17:00,71.4,52.9,29.76,NE,45,0.0,7.7,52,0.00,,SCT240,1.99,VWS V14.01,2013-06-13 17:17:00,
2013-06-13 13:22:00,71.6,53.1,29.79,NW,315,6.7,10.1,52,0.00,,SCT240,1.99,VWS V14.01,2013-06-13 17:22:00,
2013-06-13 13:27:00,72.0,53.4,29.79,NW,315,6.2,6.2,52,0.00,,SCT240,1.99,VWS V14.01,2013-06-13 17:27:00,
2013-06-13 13:32:00,72.1,53.6,29.79,NW,315,7.3,7.3,52,0.00,,SCT240,1.99,VWS V14.01,2013-06-13 17:32:00,
2013-06-13 13:37:00,72.0,53.4,29.82,NW,315,7.8,11.5,52,0.00,,SCT240,1.99,VWS V14.01,2013-06-13 17:37:00,
2013-06-13 13:42:00,72.0,52.9,29.82,NW,315,8.4,8.4,51,0.00,,SCT240,1.99,VWS V14.01,2013-06-13 17:42:00,
2013-06-13 13:47:00,72.0,52.9,29.82,NW,315,2.2,8.2,51,0.00,,SCT240,1.99,VWS V14.01,2013-06-13 17:47:00,
2013-06-13 13:52:00,71.8,52.7,29.79,NW,315,8.4,8.4,51,0.00,,SCT240,1.99,VWS V14.01,2013-06-13 17:52:00,
2013-06-13 13:57:00,71.8,52.7,29.79,NE,45,13.4,13.4,51,0.00,,SCT240,1.99,VWS V14.01,2013-06-13 17:57:00,
2013-06-13 14:02:00,71.8,52.7,29.79,NE,45,0.0,0.0,51,0.00,,SCT240,1.99,VWS V14.01,2013-06-13 18:02:00,
2013-06-13 14:07:00,72.1,53.0,29.82,NW,315,6.2,7.7,51,0.00,,SCT240,1.99,VWS V14.01,2013-06-13 18:07:00,
2013-06-13 14:12:00,72.5,53.4,29.82,NW,315,7.8,7.8,51,0.00,,SCT240,1.99,VWS V14.01,2013-06-13 18:12:00,
2013-06-13 14:17:00,72.0,52.9,29.82,ENE,68,10.6,10.6,51,0.00,,SCT240,1.99,VWS V14.01,2013-06-13 18:17:00,
2013-06-13 14:22:00,72.3,53.2,29.82,NW,315,10.1,10.1,51,0.00,,SCT240,1.99,VWS V14.01,2013-06-13 18:22:00,
2013-06-13 14:27:00,72.1,53.0,29.82,NE,45,12.3,12.3,51,0.00,,SCT240,1.99,VWS V14.01,2013-06-13 18:27:00,
2013-06-13 14:32:00,71.8,51.6,29.82,ENE,68,7.3,7.3,49,0.00,,SCT240,1.99,VWS V14.01,2013-06-13 18:32:00,
2013-06-13 14:37:00,72.0,52.9,29.82,NW,315,8.4,8.4,51,0.00,,SCT240,1.99,VWS V14.01,2013-06-13 18:37:00,
2013-06-13 14:42:00,71.6,51.5,29.82,NE,45,7.3,10.6,49,0.00,,SCT240,1.99,VWS V14.01,2013-06-13 18:42:00,
2013-06-13 14:47:00,71.4,52.9,29.82,NW,315,0.0,3.4,52,0.00,,SCT240,1.99,VWS V14.01,2013-06-13 18:47:00,
2013-06-13 14:52:00,71.2,52.7,29.82,NW,315,7.8,7.8,52,0.00,,SCT240,1.99,VWS V14.01,2013-06-13 18:52:00,
2013-06-13 14:57:00,71.4,52.9,29.82,NE,45,5.6,5.6,52,0.00,,SCT040,1.99,VWS V14.01,2013-06-13 18:57:00,
2013-06-13 15:02:00,71.6,52.5,29.82,NW,315,6.7,6.7,51,0.00,,SCT040,1.99,VWS V14.01,2013-06-13 19:02:00,
2013-06-13 15:07:00,72.0,51.8,29.85,ENE,68,6.7,6.7,49,0.00,,SCT040,1.99,VWS V14.01,2013-06-13 19:07:00,
2013-06-13 15:12:00,72.1,51.9,29.85,South,180,5.6,12.5,49,0.00,,SCT040,1.99,VWS V14.01,2013-06-13 19:12:00,
2013-06-13 15:17:00,72.1,51.9,29.85,NW,315,7.3,9.6,49,0.00,,SCT040,1.99,VWS V14.01,2013-06-13 19:17:00,
2013-06-13 15:22:00,72.1,51.9,29.85,West,270,7.8,7.8,49,0.00,,SCT040,1.99,VWS V14.01,2013-06-13 19:22:00,
2013-06-13 15:27:00,72.5,52.3,29.85,NW,315,5.6,8.2,49,0.00,,SCT040,1.99,VWS V14.01,2013-06-13 19:27:00,
2013-06-13 15:32:00,72.5,52.3,29.85,NE,45,10.6,11.5,49,0.00,,SCT040,1.99,VWS V14.01,2013-06-13 19:32:00,
2013-06-13 15:37:00,72.5,52.3,29.85,NW,315,12.3,12.3,49,0.00,,SCT040,1.99,VWS V14.01,2013-06-13 19:37:00,
2013-06-13 15:42:00,72.7,52.4,29.85,WNW,292,6.7,6.7,49,0.00,,SCT040,1.99,VWS V14.01,2013-06-13 19:42:00,
2013-06-13 15:47:00,72.7,50.7,29.85,NE,45,6.7,6.7,46,0.00,,SCT040,1.99,VWS V14.01,2013-06-13 19:47:00,
2013-06-13 15:52:00,72.5,52.3,29.85,ENE,68,6.2,11.5,49,0.00,,SCT040,1.99,VWS V14.01,2013-06-13 19:52:00,
2013-06-13 15:57:00,72.3,52.1,29.85,NW,315,6.7,6.7,49,0.00,,SCT040,1.99,VWS V14.01,2013-06-13 19:57:00,
2013-06-13 16:02:00,72.1,51.9,29.85,NW,315,11.2,12.0,49,0.00,,SCT060,1.99,VWS V14.01,2013-06-13 20:02:00,
2013-06-13 16:07:00,71.8,49.9,29.85,NW,315,15.1,15.1,46,0.00,,SCT060,1.99,VWS V14.01,2013-06-13 20:07:00,
2013-06-13 16:12:00,71.6,49.8,29.85,NW,315,14.5,14.5,46,0.00,,SCT060,1.99,VWS V14.01,2013-06-13 20:12:00,
2013-06-13 16:18:00,72.0,50.1,29.85,NE,45,6.2,6.2,46,0.00,,SCT060,1.99,VWS V14.01,2013-06-13 20:18:00,
2013-06-13 16:22:00,72.1,51.9,29.85,NW,315,3.9,3.9,49,0.00,,SCT060,1.99,VWS V14.01,2013-06-13 20:22:00,
2013-06-13 16:28:00,72.7,50.7,29.85,NW,315,6.2,7.2,46,0.00,,SCT060,1.99,VWS V14.01,2013-06-13 20:28:00,
2013-06-13 16:33:00,72.3,50.4,29.85,NW,315,9.0,9.0,46,0.00,,SCT060,1.99,VWS V14.01,2013-06-13 20:33:00,
2013-06-13 16:38:00,72.3,50.4,29.85,NE,45,9.0,10.6,46,0.00,,SCT060,1.99,VWS V14.01,2013-06-13 20:38:00,
2013-06-13 16:43:00,72.3,50.4,29.85,NE,45,9.5,9.5,46,0.00,,SCT060,1.99,VWS V14.01,2013-06-13 20:43:00,
2013-06-13 16:48:00,72.5,50.6,29.85,NE,45,6.2,7.7,46,0.00,,SCT060,1.99,VWS V14.01,2013-06-13 20:48:00,
2013-06-13 16:53:00,72.7,50.7,29.85,ENE,68,8.4,8.4,46,0.00,,SCT060,1.99,VWS V14.01,2013-06-13 20:53:00,
2013-06-13 16:58:00,72.7,50.7,29.85,NE,45,9.0,9.0,46,0.00,,SCT085,1.99,VWS V14.01,2013-06-13 20:58:00,
2013-06-13 17:03:00,72.9,50.9,29.85,NW,315,6.2,9.1,46,0.00,,SCT085,1.99,VWS V14.01,2013-06-13 21:03:00,
2013-06-13 17:08:00,72.9,50.9,29.85,NE,45,9.0,9.0,46,0.00,,SCT085,1.99,VWS V14.01,2013-06-13 21:08:00,
2013-06-13 17:13:00,72.7,50.7,29.85,NW,315,8.4,8.4,46,0.00,,SCT085,1.99,VWS V14.01,2013-06-13 21:13:00,
2013-06-13 17:18:00,72.7,50.7,29.85,NW,315,9.5,9.5,46,0.00,,SCT085,1.99,VWS V14.01,2013-06-13 21:18:00,
2013-06-13 17:23:00,72.7,50.7,29.85,NW,315,8.4,8.7,46,0.00,,SCT085,1.99,VWS V14.01,2013-06-13 21:23:00,
2013-06-13 17:28:00,73.0,51.1,29.85,WNW,292,6.7,7.7,46,0.00,,SCT085,1.99,VWS V14.01,2013-06-13 21:28:00,
2013-06-13 17:33:00,73.2,51.2,29.85,NE,45,2.2,4.3,46,0.00,,SCT085,1.99,VWS V14.01,2013-06-13 21:33:00,
2013-06-13 17:38:00,73.4,51.4,29.85,NW,315,3.4,6.3,46,0.00,,SCT085,1.99,VWS V14.01,2013-06-13 21:38:00,
2013-06-13 17:43:00,73.2,51.2,29.85,NE,45,5.0,8.2,46,0.00,,SCT085,1.99,VWS V14.01,2013-06-13 21:43:00,
2013-06-13 17:48:00,72.7,50.7,29.85,NE,45,9.5,12.0,46,0.00,,SCT085,1.99,VWS V14.01,2013-06-13 21:48:00,
2013-06-13 17:53:00,72.5,50.6,29.85,NW,315,13.4,15.4,46,0.00,,SCT085,1.99,VWS V14.01,2013-06-13 21:53:00,
2013-06-13 17:58:00,72.5,50.6,29.85,NE,45,10.6,11.5,46,0.00,,SCT085,1.99,VWS V14.01,2013-06-13 21:58:00,
2013-06-13 18:03:00,72.3,50.4,29.85,NW,315,10.1,10.1,46,0.00,,SCT090,1.99,VWS V14.01,2013-06-13 22:03:00,
2013-06-13 18:08:00,72.0,50.1,29.85,NE,45,3.4,10.1,46,0.00,,SCT090,1.99,VWS V14.01,2013-06-13 22:08:00,
2013-06-13 18:13:00,72.0,50.1,29.85,NE,45,8.4,8.4,46,0.00,,SCT090,1.99,VWS V14.01,2013-06-13 22:13:00,
2013-06-13 18:18:00,72.0,50.1,29.85,East,90,3.9,9.1,46,0.00,,SCT090,1.99,VWS V14.01,2013-06-13 22:18:00,
2013-06-13 18:23:00,72.0,50.1,29.85,NE,45,2.2,6.7,46,0.00,,SCT090,1.99,VWS V14.01,2013-06-13 22:23:00,
2013-06-13 18:28:00,72.0,50.1,29.85,NE,45,3.4,5.8,46,0.00,,SCT090,1.99,VWS V14.01,2013-06-13 22:28:00,
2013-06-13 18:33:00,72.0,50.1,29.85,NE,45,9.5,10.6,46,0.00,,SCT090,1.99,VWS V14.01,2013-06-13 22:33:00,
2013-06-13 18:38:00,71.8,49.9,29.85,NE,45,9.5,9.5,46,0.00,,SCT090,1.99,VWS V14.01,2013-06-13 22:38:00,
2013-06-13 18:43:00,71.6,49.8,29.85,NE,45,10.6,10.6,46,0.00,,SCT090,1.99,VWS V14.01,2013-06-13 22:43:00,
2013-06-13 18:48:00,71.4,50.2,29.85,South,180,2.8,2.8,47,0.00,,SCT090,1.99,VWS V14.01,2013-06-13 22:48:00,
2013-06-13 18:53:00,71.4,50.2,29.85,NE,45,3.4,3.4,47,0.00,,SCT090,1.99,VWS V14.01,2013-06-13 22:53:00,
2013-06-13 18:58:00,71.1,49.8,29.85,NW,315,7.8,13.5,47,0.00,,SCT090,1.99,VWS V14.01,2013-06-13 22:58:00,
2013-06-13 19:03:00,71.1,49.8,29.85,NW,315,7.8,7.8,47,0.00,,SCT090,1.99,VWS V14.01,2013-06-13 23:03:00,
2013-06-13 19:08:00,70.9,49.7,29.88,NE,45,9.0,9.1,47,0.00,,SCT090,1.99,VWS V14.01,2013-06-13 23:08:00,
2013-06-13 19:13:00,70.7,49.5,29.88,NE,45,3.9,10.1,47,0.00,,SCT090,1.99,VWS V14.01,2013-06-13 23:13:00,
2013-06-13 19:18:00,70.5,49.3,29.88,NE,45,3.4,6.3,47,0.00,,SCT090,1.99,VWS V14.01,2013-06-13 23:18:00,
2013-06-13 19:23:00,70.7,49.5,29.88,ENE,68,7.8,7.8,47,0.00,,SCT090,1.99,VWS V14.01,2013-06-13 23:23:00,
2013-06-13 19:28:00,70.7,49.5,29.88,NE,45,9.0,9.0,47,0.00,,SCT090,1.99,VWS V14.01,2013-06-13 23:28:00,
2013-06-13 19:33:00,70.5,49.3,29.88,WNW,292,0.0,8.2,47,0.00,,SCT090,1.99,VWS V14.01,2013-06-13 23:33:00,
2013-06-13 19:38:00,70.2,49.0,29.91,NE,45,6.7,6.7,47,0.00,,SCT090,1.99,VWS V14.01,2013-06-13 23:38:00,
2013-06-13 19:43:00,70.0,48.8,29.91,NW,315,0.0,5.8,47,0.00,,SCT090,1.99,VWS V14.01,2013-06-13 23:43:00,
2013-06-13 19:48:00,69.6,48.5,29.91,NW,315,6.2,6.2,47,0.00,,SCT090,1.99,VWS V14.01,2013-06-13 23:48:00,
2013-06-13 19:53:00,69.4,48.3,29.91,NW,315,0.0,0.0,47,0.00,,SCT090,1.99,VWS V14.01,2013-06-13 23:53:00,
2013-06-13 19:58:00,69.3,48.2,29.91,NW,315,9.0,9.0,47,0.00,,SCT090,1.99,VWS V14.01,2013-06-13 23:58:00,
2013-06-13 20:03:00,69.1,49.7,29.91,NE,45,11.7,11.7,50,0.00,,SCT240,1.99,VWS V14.01,2013-06-14 00:03:00,
2013-06-13 20:08:00,69.1,49.7,29.91,NE,45,5.0,5.0,50,0.00,,SCT240,1.99,VWS V14.01,2013-06-14 00:08:00,
2013-06-13 20:13:00,68.9,49.5,29.91,NW,315,5.6,5.6,50,0.00,,SCT240,1.99,VWS V14.01,2013-06-14 00:13:00,
2013-06-13 20:18:00,68.9,49.5,29.91,NE,45,0.0,0.0,50,0.00,,SCT240,1.99,VWS V14.01,2013-06-14 00:18:00,
2013-06-13 20:23:00,68.7,49.3,29.91,NE,45,6.2,6.3,50,0.00,,SCT240,1.99,VWS V14.01,2013-06-14 00:23:00,
2013-06-13 20:28:00,68.5,49.2,29.91,East,90,0.0,0.0,50,0.00,,SCT240,1.99,VWS V14.01,2013-06-14 00:28:00,
2013-06-13 20:33:00,68.4,49.0,29.91,NE,45,0.0,0.0,50,0.00,,SCT240,1.99,VWS V14.01,2013-06-14 00:33:00,
2013-06-13 20:38:00,68.2,48.8,29.91,NW,315,0.0,2.9,50,0.00,,SCT240,1.99,VWS V14.01,2013-06-14 00:38:00,
2013-06-13 20:43:00,68.2,49.9,29.91,NE,45,0.0,0.0,52,0.00,,SCT240,1.99,VWS V14.01,2013-06-14 00:43:00,
2013-06-13 20:48:00,68.0,49.7,29.91,NE,45,5.0,5.0,52,0.00,,SCT240,1.99,VWS V14.01,2013-06-14 00:48:00,
2013-06-13 20:53:00,67.8,49.6,29.91,NW,315,0.0,0.0,52,0.00,,SCT240,1.99,VWS V14.01,2013-06-14 00:53:00,
2013-06-13 20:58:00,67.8,50.1,29.91,NE,45,2.8,4.3,53,0.00,,SCT240,1.99,VWS V14.01,2013-06-14 00:58:00,
2013-06-13 21:03:00,67.8,50.1,29.91,NE,45,0.0,0.0,53,0.00,,SCT085,1.99,VWS V14.01,2013-06-14 01:03:00,
2013-06-13 21:08:00,67.6,49.9,29.91,NE,45,2.2,3.4,53,0.00,,SCT085,1.99,VWS V14.01,2013-06-14 01:08:00,
2013-06-13 21:13:00,67.5,49.8,29.91,NW,315,7.3,7.3,53,0.00,,SCT085,1.99,VWS V14.01,2013-06-14 01:13:00,
2013-06-13 21:18:00,67.5,49.8,29.91,NE,45,5.0,5.0,53,0.00,,SCT085,1.99,VWS V14.01,2013-06-14 01:18:00,
2013-06-13 21:23:00,67.3,49.6,29.91,NE,45,5.6,5.6,53,0.00,,SCT085,1.99,VWS V14.01,2013-06-14 01:23:00,
2013-06-13 21:28:00,67.1,49.4,29.91,East,90,0.0,0.0,53,0.00,,SCT085,1.99,VWS V14.01,2013-06-14 01:28:00,
2013-06-13 21:33:00,66.9,49.2,29.91,East,90,2.2,2.2,53,0.00,,SCT085,1.99,VWS V14.01,2013-06-14 01:33:00,
2013-06-13 21:38:00,66.6,48.9,29.91,NW,315,5.0,5.0,53,0.00,,SCT085,1.99,VWS V14.01,2013-06-14 01:38:00,
2013-06-13 21:43:00,66.6,48.9,29.91,NE,45,0.0,0.0,53,0.00,,SCT085,1.99,VWS V14.01,2013-06-14 01:43:00,
2013-06-13 21:48:00,66.2,48.6,29.91,NE,45,0.0,0.0,53,0.00,,SCT085,1.99,VWS V14.01,2013-06-14 01:48:00,
2013-06-13 21:53:00,66.0,48.9,29.91,NE,45,0.0,0.0,54,0.00,,SCT085,1.99,VWS V14.01,2013-06-14 01:53:00,
2013-06-13 21:58:00,66.0,48.9,29.91,NE,45,0.0,0.0,54,0.00,,SCT085,1.99,VWS V14.01,2013-06-14 01:58:00,
2013-06-13 22:03:00,65.8,48.8,29.91,NE,45,0.0,0.0,54,0.00,,BKN070,1.99,VWS V14.01,2013-06-14 02:03:00,
2013-06-13 22:08:00,65.8,48.8,29.94,NE,45,0.0,0.0,54,0.00,,BKN070,1.99,VWS V14.01,2013-06-14 02:08:00,
2013-06-13 22:13:00,65.7,48.6,29.94,NE,45,0.0,0.0,54,0.00,,BKN070,1.99,VWS V14.01,2013-06-14 02:13:00,
2013-06-13 22:18:00,65.7,48.6,29.94,NE,45,0.0,0.0,54,0.00,,BKN070,1.99,VWS V14.01,2013-06-14 02:18:00,
2013-06-13 22:23:00,65.5,48.4,29.94,NE,45,0.0,0.0,54,0.00,,BKN070,1.99,VWS V14.01,2013-06-14 02:23:00,
2013-06-13 22:28:00,65.5,48.4,29.94,NE,45,0.0,0.0,54,0.00,,BKN070,1.99,VWS V14.01,2013-06-14 02:28:00,
2013-06-13 22:33:00,65.5,48.4,29.94,SW,225,0.0,2.4,54,0.00,,BKN070,1.99,VWS V14.01,2013-06-14 02:33:00,
2013-06-13 22:38:00,65.3,48.2,29.94,NW,315,6.2,6.2,54,0.00,,BKN070,1.99,VWS V14.01,2013-06-14 02:38:00,
2013-06-13 22:43:00,65.3,48.2,29.94,NW,315,2.2,2.9,54,0.00,,BKN070,1.99,VWS V14.01,2013-06-14 02:43:00,
2013-06-13 22:49:00,65.1,48.1,29.94,NE,45,6.2,6.2,54,0.00,,BKN070,1.99,VWS V14.01,2013-06-14 02:49:00,
2013-06-13 22:54:00,65.1,48.1,29.94,NW,315,3.4,3.4,54,0.00,,BKN070,1.99,VWS V14.01,2013-06-14 02:54:00,
2013-06-13 22:59:00,64.9,47.9,29.94,NE,45,2.8,2.8,54,0.00,,BKN070,1.99,VWS V14.01,2013-06-14 02:59:00,
2013-06-13 23:04:00,64.8,47.8,29.94,NW,315,2.8,4.3,54,0.00,,BKN080,1.99,VWS V14.01,2013-06-14 03:04:00,
2013-06-13 23:09:00,64.6,47.6,29.94,NE,45,0.0,0.0,54,0.00,,BKN080,1.99,VWS V14.01,2013-06-14 03:09:00,
2013-06-13 23:14:00,64.4,47.4,29.94,NE,45,0.0,3.4,54,0.00,,BKN080,1.99,VWS V14.01,2013-06-14 03:14:00,
2013-06-13 23:19:00,64.2,47.7,29.94,NW,315,0.0,2.4,55,0.00,,BKN080,1.99,VWS V14.01,2013-06-14 03:19:00,
2013-06-13 23:24:00,64.0,47.6,29.94,NW,315,0.0,0.0,55,0.00,,BKN080,1.99,VWS V14.01,2013-06-14 03:24:00,
2013-06-13 23:29:00,63.9,47.4,29.94,NW,315,0.0,0.0,55,0.00,,BKN080,1.99,VWS V14.01,2013-06-14 03:29:00,
2013-06-13 23:34:00,63.7,47.2,29.94,WNW,292,0.0,0.0,55,0.00,,BKN080,1.99,VWS V14.01,2013-06-14 03:34:00,
2013-06-13 23:39:00,63.5,47.1,29.94,SSE,158,0.0,0.0,55,0.00,,BKN080,1.99,VWS V14.01,2013-06-14 03:39:00,
2013-06-13 23:44:00,63.3,47.4,29.94,NE,45,6.2,6.2,56,0.00,,BKN080,1.99,VWS V14.01,2013-06-14 03:44:00,
2013-06-13 23:49:00,63.3,47.4,29.94,NE,45,0.0,0.0,56,0.00,,BKN080,1.99,VWS V14.01,2013-06-14 03:49:00,
2013-06-13 23:54:00,63.1,47.2,29.94,NE,45,0.0,0.0,56,0.00,,BKN080,1.99,VWS V14.01,2013-06-14 03:54:00,
2013-06-13 23:59:00,63.1,47.2,29.94,NW,315,0.0,0.0,56,0.00,,BKN080,0.00,VWS V14.01,2013-06-14 03:59:00,